createdAt,value
2019-01-31T00:00:42.245Z,96758.38
2019-01-31T00:03:16.332Z,96757.55
2019-01-31T00:08:29.155Z,96749.71
2019-01-31T00:11:05.632Z,96744.88
2019-01-31T00:13:39.657Z,96749.88
2019-01-31T00:16:13.714Z,96744.28
2019-01-31T00:18:47.828Z,96741.63
2019-01-31T00:21:21.828Z,96749.88
2019-01-31T00:23:56.249Z,96748.02
2019-01-31T00:26:30.268Z,96750.11
2019-01-31T00:29:04.363Z,96746.98
2019-01-31T00:31:38.406Z,96740.17
2019-01-31T00:34:22.024Z,96738.55
2019-01-31T00:36:56.031Z,96737.77
2019-01-31T00:42:11.016Z,96727.86
2019-01-31T00:44:45.062Z,96730.00
2019-01-31T00:47:19.478Z,96730.23
2019-01-31T00:50:11.286Z,96730.26
2019-01-31T00:52:45.373Z,96730.28
2019-01-31T00:55:19.433Z,96728.58
2019-01-31T00:58:11.327Z,96728.60
2019-01-31T01:00:45.345Z,96720.30
2019-01-31T01:03:19.440Z,96715.73
2019-01-31T01:05:53.461Z,96713.91
2019-01-31T01:08:28.441Z,96717.23
2019-01-31T01:11:02.510Z,96712.55
2019-01-31T01:13:36.930Z,96717.80
2019-01-31T01:16:10.940Z,96712.02
2019-01-31T01:21:24.102Z,96706.02
2019-01-31T01:24:15.916Z,96704.22
2019-01-31T01:26:50.002Z,96702.34
2019-01-31T01:29:24.024Z,96699.31
2019-01-31T01:31:58.817Z,96696.91
2019-01-31T01:34:32.873Z,96697.70
2019-01-31T01:37:07.261Z,96700.58
2019-01-31T01:39:41.283Z,96700.22
2019-01-31T01:42:15.400Z,96698.08
2019-01-31T01:44:49.460Z,96693.08
2019-01-31T01:47:23.547Z,96690.08
2019-01-31T01:49:57.585Z,96690.22
2019-01-31T01:52:31.668Z,96686.77
2019-01-31T01:55:05.681Z,96683.18
2019-01-31T01:57:39.745Z,96683.42
2019-01-31T02:00:14.154Z,96682.07
2019-01-31T02:02:48.305Z,96680.55
2019-01-31T02:07:59.418Z,96673.89
2019-01-31T02:10:33.430Z,96675.23
2019-01-31T02:15:44.919Z,96661.50
2019-01-31T02:18:18.999Z,96660.06
2019-01-31T02:20:53.080Z,96647.71
2019-01-31T02:23:27.106Z,96647.18
2019-01-31T02:26:01.167Z,96641.45
2019-01-31T02:28:35.221Z,96635.36
2019-01-31T02:33:48.311Z,96632.69
2019-01-31T02:36:22.342Z,96630.22
2019-01-31T02:38:56.422Z,96623.63
2019-01-31T02:41:30.465Z,96618.73
2019-01-31T02:44:04.914Z,96614.19
2019-01-31T02:46:57.105Z,96611.00
2019-01-31T02:49:31.506Z,96610.00
2019-01-31T02:52:05.559Z,96601.97
2019-01-31T02:54:39.617Z,96604.56
2019-01-31T02:57:13.643Z,96598.94
2019-01-31T02:59:47.683Z,96595.24
2019-01-31T03:02:21.701Z,96591.52
2019-01-31T03:04:55.759Z,96587.01
2019-01-31T03:07:29.807Z,96589.13
2019-01-31T03:12:41.515Z,96584.05
2019-01-31T03:15:15.565Z,96582.44
2019-01-31T03:18:07.388Z,96522.47
2019-01-31T03:20:41.457Z,96576.63
2019-01-31T03:23:16.336Z,96577.02
2019-01-31T03:26:08.345Z,96578.91
2019-01-31T03:28:42.427Z,96573.45
2019-01-31T03:31:16.487Z,96576.93
2019-01-31T03:33:50.531Z,96574.59
2019-01-31T03:36:24.574Z,96564.98
2019-01-31T03:38:58.637Z,96565.95
2019-01-31T03:41:32.656Z,96570.36
2019-01-31T03:44:06.753Z,96571.96
2019-01-31T03:46:40.796Z,96572.30
2019-01-31T03:49:14.843Z,96572.63
2019-01-31T03:51:48.892Z,96575.77
2019-01-31T03:54:22.944Z,96573.42
2019-01-31T03:56:56.949Z,96573.14
2019-01-31T03:59:31.294Z,96571.13
2019-01-31T04:02:05.344Z,96574.61
2019-01-31T04:04:39.379Z,96573.20
2019-01-31T04:07:10.450Z,96572.41
2019-01-31T04:09:41.664Z,96574.61
2019-01-31T04:12:11.487Z,96573.84
2019-01-31T04:14:41.223Z,96572.72
2019-01-31T04:17:10.879Z,96577.83
2019-01-31T04:19:40.487Z,96570.59
2019-01-31T04:22:10.045Z,96571.05
2019-01-31T04:24:39.604Z,96575.73
2019-01-31T04:27:10.936Z,96578.69
2019-01-31T04:29:40.506Z,96581.13
2019-01-31T04:32:10.088Z,96578.59
2019-01-31T04:34:40.065Z,96573.81
2019-01-31T04:37:09.645Z,96571.94
2019-01-31T04:39:39.219Z,96577.02
2019-01-31T04:42:10.183Z,96563.31
2019-01-31T04:44:39.782Z,96564.37
2019-01-31T04:47:09.440Z,96561.84
2019-01-31T04:49:39.021Z,96559.69
2019-01-31T04:52:08.751Z,96564.14
2019-01-31T04:54:38.309Z,96561.50
2019-01-31T04:57:08.052Z,96559.53
2019-01-31T04:59:37.648Z,96545.64
2019-01-31T05:02:07.348Z,96547.29
2019-01-31T05:04:36.944Z,96551.66
2019-01-31T05:07:08.009Z,96552.28
2019-01-31T05:09:37.563Z,96547.70
2019-01-31T05:12:07.661Z,96544.42
2019-01-31T05:14:37.244Z,96541.03
2019-01-31T05:17:18.554Z,96542.18
2019-01-31T05:19:48.132Z,96543.13
2019-01-31T05:22:19.190Z,96545.50
2019-01-31T05:25:10.302Z,96544.19
2019-01-31T05:27:59.169Z,96486.07
2019-01-31T05:30:30.259Z,96536.66
2019-01-31T05:33:01.351Z,96538.59
2019-01-31T05:35:50.227Z,96539.53
2019-01-31T05:38:19.818Z,96537.88
2019-01-31T05:40:55.728Z,96535.63
2019-01-31T05:43:20.978Z,96536.69
2019-01-31T05:45:50.561Z,96536.52
2019-01-31T05:48:20.189Z,96543.72
2019-01-31T05:51:09.092Z,96539.80
2019-01-31T05:53:38.675Z,96545.89
2019-01-31T05:56:08.465Z,96553.75
2019-01-31T05:58:38.064Z,96547.14
2019-01-31T06:01:07.688Z,96550.02
2019-01-31T06:03:37.293Z,96545.70
2019-01-31T06:06:07.014Z,96557.11
2019-01-31T06:08:36.603Z,96547.92
2019-01-31T06:11:08.091Z,96556.84
2019-01-31T06:13:39.279Z,96553.91
2019-01-31T06:16:10.364Z,96559.05
2019-01-31T06:18:40.221Z,96562.45
2019-01-31T06:21:12.821Z,96559.48
2019-01-31T06:23:42.426Z,96563.23
2019-01-31T06:26:12.129Z,96562.67
2019-01-31T06:28:41.947Z,96566.26
2019-01-31T06:31:14.221Z,96565.33
2019-01-31T06:33:43.781Z,96568.05
2019-01-31T06:36:15.294Z,96568.91
2019-01-31T06:38:44.886Z,96570.64
2019-01-31T06:41:18.679Z,96572.91
2019-01-31T06:43:46.375Z,96571.95
2019-01-31T06:46:15.957Z,96577.91
2019-01-31T06:48:45.557Z,96585.36
2019-01-31T06:51:15.176Z,96585.54
2019-01-31T06:53:44.867Z,96587.25
2019-01-31T06:56:14.493Z,96588.63
2019-01-31T06:58:44.102Z,96587.02
2019-01-31T07:01:13.747Z,96591.80
2019-01-31T07:03:43.412Z,96598.41
2019-01-31T07:06:13.012Z,96594.22
2019-01-31T07:08:42.628Z,96603.77
2019-01-31T07:11:12.233Z,96600.02
2019-01-31T07:13:44.621Z,96602.78
2019-01-31T07:16:14.209Z,96603.44
2019-01-31T07:18:44.054Z,96604.09
2019-01-31T07:21:13.672Z,96610.67
2019-01-31T07:23:45.918Z,96610.46
2019-01-31T07:26:14.573Z,96614.58
2019-01-31T07:28:44.193Z,96611.96
2019-01-31T07:31:13.822Z,96621.14
2019-01-31T07:33:43.397Z,96622.21
2019-01-31T07:36:13.020Z,96622.60
2019-01-31T07:38:42.570Z,96620.57
2019-01-31T07:41:12.153Z,96626.48
2019-01-31T07:43:41.822Z,96631.59
2019-01-31T07:46:11.525Z,96629.16
2019-01-31T07:48:41.181Z,96633.56
2019-01-31T07:51:17.105Z,96636.66
2019-01-31T07:53:46.686Z,96639.50
2019-01-31T07:56:16.418Z,96640.67
2019-01-31T07:58:46.039Z,96638.70
2019-01-31T08:01:15.743Z,96642.86
2019-01-31T08:03:45.351Z,96639.92
2019-01-31T08:06:15.056Z,96643.47
2019-01-31T08:08:44.653Z,96639.30
2019-01-31T08:11:14.281Z,96643.12
2019-01-31T08:13:45.419Z,96647.30
2019-01-31T08:16:18.084Z,96647.05
2019-01-31T08:18:47.705Z,96649.92
2019-01-31T08:21:17.549Z,96650.95
2019-01-31T08:23:47.093Z,96648.59
2019-01-31T08:26:16.945Z,96645.55
2019-01-31T08:28:46.526Z,96647.09
2019-01-31T08:31:16.944Z,96656.25
2019-01-31T08:33:46.578Z,96654.83
2019-01-31T08:36:16.156Z,96661.95
2019-01-31T08:38:45.741Z,96656.42
2019-01-31T08:41:15.396Z,96651.52
2019-01-31T08:43:46.717Z,96649.36
2019-01-31T08:46:16.437Z,96652.80
2019-01-31T08:48:46.023Z,96658.29
2019-01-31T08:51:15.764Z,96653.94
2019-01-31T08:53:45.324Z,96648.83
2019-01-31T08:56:14.878Z,96652.33
2019-01-31T08:58:44.487Z,96654.39
2019-01-31T09:01:14.051Z,96655.56
2019-01-31T09:03:43.709Z,96656.06
2019-01-31T09:06:15.035Z,96657.02
2019-01-31T09:08:44.991Z,96660.91
2019-01-31T09:11:14.683Z,96658.71
2019-01-31T09:13:44.350Z,96660.03
2019-01-31T09:16:14.201Z,96665.27
2019-01-31T09:18:43.867Z,96663.66
2019-01-31T09:21:17.918Z,96668.91
2019-01-31T09:23:51.934Z,96668.00
2019-01-31T09:26:26.380Z,96671.78
2019-01-31T09:29:00.427Z,96674.36
2019-01-31T09:31:34.874Z,96678.52
2019-01-31T09:34:09.253Z,96676.89
2019-01-31T09:36:43.519Z,96682.16
2019-01-31T09:41:58.649Z,96680.37
2019-01-31T09:44:35.611Z,96685.66
2019-01-31T09:47:09.700Z,96692.50
2019-01-31T09:49:43.865Z,96668.28
2019-01-31T09:52:18.126Z,96689.34
2019-01-31T09:54:52.166Z,96688.41
2019-01-31T09:57:26.242Z,96683.00
2019-01-31T10:00:00.335Z,96689.62
2019-01-31T10:05:21.316Z,96687.69
2019-01-31T10:07:55.365Z,96685.37
2019-01-31T10:10:29.494Z,96684.96
2019-01-31T10:13:03.481Z,96682.74
2019-01-31T10:15:56.551Z,96681.30
2019-01-31T10:18:30.605Z,96684.77
2019-01-31T10:21:10.786Z,96685.23
2019-01-31T10:23:44.828Z,96687.20
2019-01-31T10:26:19.104Z,96687.63
2019-01-31T10:28:53.145Z,96692.20
2019-01-31T10:31:27.209Z,96687.03
2019-01-31T10:34:01.620Z,96696.26
2019-01-31T10:36:35.702Z,96692.30
2019-01-31T10:39:09.736Z,96692.75
2019-01-31T10:41:44.233Z,96688.62
2019-01-31T10:44:19.223Z,96685.75
2019-01-31T10:46:53.281Z,96683.64
2019-01-31T10:49:27.323Z,96681.16
2019-01-31T10:52:01.771Z,96678.56
2019-01-31T10:54:55.193Z,96674.80
2019-01-31T10:57:29.243Z,96678.78
2019-01-31T11:00:04.878Z,96669.69
2019-01-31T11:02:39.184Z,96667.97
2019-01-31T11:05:13.199Z,96667.04
2019-01-31T11:07:55.979Z,96665.11
2019-01-31T11:10:30.028Z,96661.19
2019-01-31T11:13:04.266Z,96660.59
2019-01-31T11:15:38.347Z,96653.13
2019-01-31T11:18:12.390Z,96658.55
2019-01-31T11:20:46.408Z,96657.97
2019-01-31T11:23:20.460Z,96657.15
2019-01-31T11:25:54.504Z,96651.41
2019-01-31T11:28:28.612Z,96654.20
2019-01-31T11:31:02.652Z,96653.50
2019-01-31T11:33:36.750Z,96654.07
2019-01-31T11:36:10.775Z,96654.08
2019-01-31T11:41:27.268Z,96646.11
2019-01-31T11:44:01.680Z,96647.22
2019-01-31T11:49:17.255Z,96640.92
2019-01-31T11:51:51.300Z,96639.37
2019-01-31T11:54:25.919Z,96636.47
2019-01-31T11:57:05.449Z,96634.02
2019-01-31T11:59:31.283Z,96632.63
2019-01-31T12:02:01.017Z,96635.58
2019-01-31T12:04:30.564Z,96631.36
2019-01-31T12:07:00.214Z,96640.03
2019-01-31T12:09:30.046Z,96630.41
2019-01-31T12:11:59.639Z,96634.22
2019-01-31T12:14:29.233Z,96628.99
2019-01-31T12:16:58.841Z,96631.25
2019-01-31T12:19:28.761Z,96629.88
2019-01-31T12:21:58.493Z,96632.61
2019-01-31T12:24:28.225Z,96632.07
2019-01-31T12:26:57.965Z,96636.84
2019-01-31T12:29:27.591Z,96638.16
2019-01-31T12:31:57.361Z,96637.55
2019-01-31T12:34:29.301Z,96636.94
2019-01-31T12:36:58.865Z,96636.52
2019-01-31T12:39:32.790Z,96640.88
2019-01-31T12:42:02.690Z,96638.13
2019-01-31T12:44:51.548Z,96645.03
2019-01-31T12:47:21.299Z,96635.80
2019-01-31T12:49:50.899Z,96633.20
2019-01-31T12:52:20.472Z,96624.97
2019-01-31T12:54:50.032Z,96618.30
2019-01-31T12:57:19.622Z,96619.91
2019-01-31T12:59:49.331Z,96616.20
2019-01-31T13:02:18.936Z,96608.83
2019-01-31T13:04:48.533Z,96609.77
2019-01-31T13:07:18.123Z,96608.02
2019-01-31T13:09:47.688Z,96605.84
2019-01-31T13:12:17.508Z,96602.48
2019-01-31T13:14:47.103Z,96599.41
2019-01-31T13:17:16.685Z,96603.66
2019-01-31T13:19:46.571Z,96599.62
2019-01-31T13:22:16.493Z,96600.67
2019-01-31T13:24:46.245Z,96595.98
2019-01-31T13:27:15.832Z,96605.09
2019-01-31T13:29:45.746Z,96582.42
2019-01-31T13:32:15.327Z,96601.91
2019-01-31T13:34:44.891Z,96602.86
2019-01-31T13:37:14.463Z,96599.95
2019-01-31T13:39:44.053Z,96600.28
2019-01-31T13:42:13.701Z,96600.66
2019-01-31T13:44:43.330Z,96602.16
2019-01-31T13:47:14.436Z,96604.16
2019-01-31T13:49:44.226Z,96596.06
2019-01-31T13:52:13.849Z,96598.78
2019-01-31T13:54:43.500Z,96593.63
2019-01-31T13:57:13.196Z,96591.30
2019-01-31T13:59:42.982Z,96593.63
2019-01-31T14:02:12.643Z,96590.35
2019-01-31T14:04:42.376Z,96582.34
2019-01-31T14:07:12.088Z,96585.64
2019-01-31T14:09:43.152Z,96592.86
2019-01-31T14:12:12.933Z,96598.59
2019-01-31T14:14:42.503Z,96593.14
2019-01-31T14:17:12.055Z,96593.08
2019-01-31T14:19:41.650Z,96595.04
2019-01-31T14:22:11.365Z,96594.23
2019-01-31T14:24:43.784Z,96595.66
2019-01-31T14:27:12.375Z,96574.09
2019-01-31T14:29:41.973Z,96591.41
2019-01-31T14:32:11.828Z,96585.55
2019-01-31T14:34:41.383Z,96591.80
2019-01-31T14:37:11.351Z,96588.44
2019-01-31T14:39:40.964Z,96583.06
2019-01-31T14:42:12.102Z,96585.30
2019-01-31T14:44:43.180Z,96580.55
2019-01-31T14:47:12.769Z,96583.20
2019-01-31T14:49:42.513Z,96582.94
2019-01-31T14:52:13.650Z,96584.36
2019-01-31T14:54:44.347Z,96580.75
2019-01-31T14:57:15.565Z,96575.56
2019-01-31T14:59:45.030Z,96578.75
2019-01-31T15:02:14.600Z,96569.45
2019-01-31T15:04:46.760Z,96565.01
2019-01-31T15:07:16.389Z,96563.65
2019-01-31T15:09:45.997Z,96560.31
2019-01-31T15:12:15.714Z,96563.47
2019-01-31T15:14:45.252Z,96566.66
2019-01-31T15:17:14.840Z,96566.76
2019-01-31T15:19:44.427Z,96565.94
2019-01-31T15:22:14.032Z,96563.25
2019-01-31T15:25:02.916Z,96557.27
2019-01-31T15:27:38.391Z,96557.20
2019-01-31T15:30:12.444Z,96555.17
2019-01-31T15:33:01.780Z,96552.97
2019-01-31T15:35:31.358Z,96550.39
2019-01-31T15:38:00.986Z,96548.09
2019-01-31T15:40:34.983Z,96549.11
2019-01-31T15:43:05.666Z,96552.65
2019-01-31T15:45:35.441Z,96551.50
2019-01-31T15:48:06.227Z,96548.66
2019-01-31T15:50:36.514Z,96547.46
2019-01-31T15:53:06.871Z,96541.61
2019-01-31T15:55:39.582Z,96543.56
2019-01-31T15:58:09.503Z,96538.72
2019-01-31T16:03:18.416Z,96532.55
2019-01-31T16:05:48.278Z,96528.76
2019-01-31T16:08:18.075Z,96533.08
2019-01-31T16:10:47.772Z,96529.23
2019-01-31T16:13:17.304Z,96533.64
2019-01-31T16:15:47.396Z,96531.47
2019-01-31T16:18:17.087Z,96526.91
2019-01-31T16:20:46.649Z,96510.48
2019-01-31T16:23:17.766Z,96513.59
2019-01-31T16:25:48.200Z,96512.30
2019-01-31T16:28:17.959Z,96520.63
2019-01-31T16:30:47.615Z,96518.19
2019-01-31T16:33:17.549Z,96519.13
2019-01-31T16:35:47.345Z,96521.23
2019-01-31T16:38:16.902Z,96511.30
2019-01-31T16:40:48.012Z,96518.87
2019-01-31T16:43:18.089Z,96516.07
2019-01-31T16:45:47.734Z,96508.28
2019-01-31T16:48:17.671Z,96501.45
2019-01-31T16:50:47.310Z,96499.11
2019-01-31T16:53:17.024Z,96484.86
2019-01-31T16:55:48.194Z,96463.91
2019-01-31T16:58:18.093Z,96464.09
2019-01-31T17:00:50.313Z,96475.59
2019-01-31T17:03:20.323Z,96468.27
2019-01-31T17:05:49.971Z,96477.16
2019-01-31T17:08:19.753Z,96480.58
2019-01-31T17:10:49.717Z,96485.73
2019-01-31T17:13:20.400Z,96481.86
2019-01-31T17:15:51.290Z,96481.89
2019-01-31T17:18:20.810Z,96478.94
2019-01-31T17:20:50.407Z,96469.63
2019-01-31T17:23:20.370Z,96463.45
2019-01-31T17:25:50.415Z,96457.37
2019-01-31T17:28:20.031Z,96449.76
2019-01-31T17:30:49.634Z,96449.84
2019-01-31T17:33:19.273Z,96441.89
2019-01-31T17:35:48.865Z,96447.26
2019-01-31T17:38:18.457Z,96436.92
2019-01-31T17:40:48.084Z,96427.19
2019-01-31T17:43:17.731Z,96424.88
2019-01-31T17:45:47.480Z,96420.86
2019-01-31T17:48:17.622Z,96417.94
2019-01-31T17:50:53.386Z,96419.13
2019-01-31T17:53:22.981Z,96417.18
2019-01-31T17:55:54.071Z,96409.45
2019-01-31T17:58:23.671Z,96405.00
2019-01-31T18:00:54.858Z,96391.18
2019-01-31T18:03:24.788Z,96385.83
2019-01-31T18:05:54.344Z,96387.25
2019-01-31T18:08:23.942Z,96391.17
2019-01-31T18:10:53.631Z,96385.34
2019-01-31T18:13:23.452Z,96373.21
2019-01-31T18:15:54.526Z,96362.79
2019-01-31T18:18:24.097Z,96355.34
2019-01-31T18:20:53.765Z,96369.66
2019-01-31T18:23:23.371Z,96368.39
2019-01-31T18:25:53.396Z,96367.45
2019-01-31T18:28:22.997Z,96353.01
2019-01-31T18:30:52.614Z,96338.24
2019-01-31T18:33:22.226Z,96334.66
2019-01-31T18:35:51.821Z,96330.91
2019-01-31T18:38:28.420Z,96329.66
2019-01-31T18:40:58.012Z,96328.91
2019-01-31T18:43:30.828Z,96325.09
2019-01-31T18:46:01.950Z,96323.27
2019-01-31T18:48:32.659Z,96328.20
2019-01-31T18:51:03.883Z,96336.42
2019-01-31T18:53:35.081Z,96338.12
2019-01-31T18:56:06.128Z,96341.94
2019-01-31T18:58:35.695Z,96342.98
2019-01-31T19:01:24.833Z,96348.27
2019-01-31T19:03:54.642Z,96346.02
2019-01-31T19:06:24.351Z,96341.60
2019-01-31T19:08:55.255Z,96331.51
2019-01-31T19:11:26.336Z,96339.36
2019-01-31T19:14:06.885Z,96345.13
2019-01-31T19:16:37.967Z,96341.08
2019-01-31T19:19:09.110Z,96341.44
2019-01-31T19:21:38.813Z,96331.48
2019-01-31T19:24:08.514Z,96314.62
2019-01-31T19:26:38.241Z,96313.02
2019-01-31T19:29:10.613Z,96305.88
2019-01-31T19:31:59.450Z,96301.59
2019-01-31T19:34:29.065Z,96296.94
2019-01-31T19:36:58.690Z,96296.04
2019-01-31T19:39:28.259Z,96290.81
2019-01-31T19:41:57.981Z,96278.81
2019-01-31T19:44:30.487Z,96272.64
2019-01-31T19:47:00.056Z,96269.43
2019-01-31T19:49:29.725Z,96271.33
2019-01-31T19:52:00.422Z,96270.56
2019-01-31T19:54:42.131Z,96270.88
2019-01-31T19:57:18.859Z,96160.25
2019-01-31T19:59:48.806Z,96259.45
2019-01-31T20:02:18.392Z,96259.73
2019-01-31T20:04:48.142Z,96254.02
2019-01-31T20:07:17.835Z,96249.52
2019-01-31T20:09:47.775Z,96248.75
2019-01-31T20:12:19.887Z,96244.75
2019-01-31T20:14:49.683Z,96240.78
2019-01-31T20:17:19.491Z,96238.10
2019-01-31T20:19:52.057Z,96237.45
2019-01-31T20:22:23.131Z,96229.94
2019-01-31T20:24:52.726Z,96225.55
2019-01-31T20:27:23.890Z,96218.55
2019-01-31T20:29:53.517Z,96212.06
2019-01-31T20:32:24.580Z,96206.18
2019-01-31T20:34:55.809Z,96209.35
2019-01-31T20:37:25.521Z,96200.47
2019-01-31T20:39:58.156Z,96191.30
2019-01-31T20:42:27.740Z,96186.06
2019-01-31T20:44:57.386Z,96177.41
2019-01-31T20:47:27.260Z,96176.50
2019-01-31T20:49:56.837Z,96169.15
2019-01-31T20:52:47.245Z,96157.73
2019-01-31T20:55:17.651Z,96153.77
2019-01-31T20:58:07.132Z,96163.98
2019-01-31T21:00:41.334Z,96162.66
2019-01-31T21:03:14.570Z,96162.04
2019-01-31T21:06:03.450Z,96146.62
2019-01-31T21:08:34.457Z,96135.30
2019-01-31T21:11:04.310Z,96136.45
2019-01-31T21:13:35.461Z,96136.34
2019-01-31T21:16:05.254Z,96134.71
2019-01-31T21:18:36.370Z,96123.26
2019-01-31T21:21:06.365Z,96128.48
2019-01-31T21:23:35.961Z,96126.89
2019-01-31T21:26:14.582Z,96127.58
2019-01-31T21:28:44.164Z,96122.80
2019-01-31T21:31:13.758Z,96108.47
2019-01-31T21:33:43.374Z,96108.23
2019-01-31T21:36:12.988Z,96100.66
2019-01-31T21:38:42.544Z,96112.03
2019-01-31T21:41:12.099Z,96105.31
2019-01-31T21:43:41.697Z,96101.03
2019-01-31T21:46:30.386Z,96021.30
2019-01-31T21:49:01.443Z,96115.45
2019-01-31T21:51:31.076Z,96113.42
2019-01-31T21:54:02.184Z,96106.42
2019-01-31T21:56:33.627Z,96098.77
2019-01-31T21:59:03.247Z,96093.53
2019-01-31T22:01:33.232Z,96088.99
2019-01-31T22:04:03.004Z,96083.58
2019-01-31T22:06:32.650Z,96080.09
2019-01-31T22:09:03.490Z,96081.32
2019-01-31T22:11:33.155Z,96086.52
2019-01-31T22:14:02.983Z,96088.41
2019-01-31T22:16:32.578Z,96075.83
2019-01-31T22:19:02.186Z,96088.19
2019-01-31T22:21:31.937Z,96076.66
2019-01-31T22:24:01.487Z,96078.87
2019-01-31T22:26:32.562Z,96076.64
2019-01-31T22:29:02.149Z,96082.06
2019-01-31T22:31:31.727Z,96080.50
2019-01-31T22:34:01.316Z,96074.83
2019-01-31T22:36:30.883Z,96073.64
2019-01-31T22:39:00.436Z,96066.60
2019-01-31T22:41:32.670Z,96059.66
2019-01-31T22:44:02.414Z,96057.23
2019-01-31T22:46:31.975Z,96048.57
2019-01-31T22:49:01.740Z,96048.71
2019-01-31T22:51:32.294Z,96044.86
2019-01-31T22:54:02.157Z,96041.91
2019-01-31T22:56:31.761Z,96041.04
2019-01-31T22:59:01.398Z,96039.21
2019-01-31T23:01:35.855Z,96034.00
2019-01-31T23:04:06.056Z,96036.41
2019-01-31T23:06:35.946Z,96028.17
2019-01-31T23:09:08.828Z,96030.69
2019-01-31T23:11:57.824Z,96033.48
2019-01-31T23:14:27.375Z,96028.33
2019-01-31T23:16:56.973Z,96020.91
2019-01-31T23:19:31.082Z,96025.00
2019-01-31T23:22:02.131Z,96019.30
2019-01-31T23:24:31.726Z,96017.77
2019-01-31T23:27:01.689Z,96009.09
2019-01-31T23:29:31.232Z,96001.69
2019-01-31T23:32:00.982Z,96000.70
2019-01-31T23:34:30.679Z,95994.36
2019-01-31T23:37:00.276Z,95994.22
2019-01-31T23:39:29.842Z,95992.80
2019-01-31T23:41:59.509Z,95985.73
2019-01-31T23:44:30.022Z,95984.94
2019-01-31T23:46:59.609Z,95978.20
2019-01-31T23:49:31.599Z,95976.06
2019-01-31T23:52:20.663Z,95976.51
2019-01-31T23:54:50.313Z,95980.59
2019-01-31T23:57:31.913Z,95973.30
